Time;durP1;ratioP1;P1;durP2;ratioP2;P2;SDS_P1;SDS_P2;PMS_P1;PMS_P2;Temp;Humidity;BMP_temperature;BMP_pressure;BME280_temperature;BME280_humidity;BME280_pressure;Samples;Min_cycle;Max_cycle;Signal;HPM_P1;HPM_P2
2022/07/22 00:02:15;;;;;;;13.07;7.20;;;17.50;70.70;;;;;;5077139;28;20162;-56
2022/07/22 00:04:41;;;;;;;11.40;7.35;;;17.50;72.50;;;;;;5074935;28;20484;-57
2022/07/22 00:07:07;;;;;;;11.23;7.28;;;17.50;71.10;;;;;;5061211;28;20135;-56
2022/07/22 00:09:33;;;;;;;15.20;7.93;;;17.50;71.70;;;;;;5074128;28;20111;-56
2022/07/22 00:11:59;;;;;;;12.65;7.63;;;17.50;71.10;;;;;;5074316;28;20059;-57
2022/07/22 00:14:25;;;;;;;13.30;8.13;;;17.50;71.80;;;;;;5072994;28;20024;-55
2022/07/22 00:16:50;;;;;;;11.95;7.65;;;17.50;72.50;;;;;;5069085;28;20035;-57
2022/07/22 00:19:16;;;;;;;10.95;7.15;;;17.50;73.30;;;;;;5057860;28;20052;-57
2022/07/22 00:21:42;;;;;;;15.20;7.88;;;17.60;72.50;;;;;;5074941;28;20059;-55
2022/07/22 00:24:08;;;;;;;15.45;7.93;;;17.50;70.90;;;;;;5074208;28;20028;-56
2022/07/22 00:26:34;;;;;;;12.82;7.97;;;17.60;72.70;;;;;;5070941;28;20107;-57
2022/07/22 00:28:59;;;;;;;12.23;7.50;;;17.60;72.40;;;;;;5070648;28;20158;-56
2022/07/22 00:31:25;;;;;;;12.63;7.80;;;17.50;73.90;;;;;;5072751;28;20043;-57
2022/07/22 00:33:51;;;;;;;14.95;9.43;;;17.50;72.00;;;;;;5070094;28;20033;-56
2022/07/22 00:36:17;;;;;;;13.68;8.55;;;17.50;72.90;;;;;;5073759;28;20025;-57
2022/07/22 00:38:43;;;;;;;14.50;8.60;;;17.50;72.30;;;;;;5076249;28;20029;-54
2022/07/22 00:41:08;;;;;;;18.00;9.38;;;17.50;71.20;;;;;;5075660;28;20021;-57
2022/07/22 00:44:04;;;;;;;12.82;8.63;;;17.50;72.60;;;;;;5068557;28;20035;-57
2022/07/22 00:46:31;;;;;;;14.15;8.63;;;17.50;72.70;;;;;;5059005;28;20059;-56
2022/07/22 00:48:57;;;;;;;14.10;9.05;;;17.50;73.70;;;;;;5067661;28;20430;-56
2022/07/22 00:51:25;;;;;;;14.73;8.70;;;17.50;73.50;;;;;;5065342;28;20025;-56
2022/07/22 00:53:51;;;;;;;14.93;8.50;;;17.50;73.90;;;;;;5076819;28;20032;-55
2022/07/22 00:56:18;;;;;;;16.25;8.80;;;17.50;73.30;;;;;;5077539;28;20028;-56
2022/07/22 00:58:45;;;;;;;14.90;8.77;;;17.50;73.00;;;;;;5076189;28;20024;-57
2022/07/22 01:01:11;;;;;;;13.80;8.48;;;17.50;73.80;;;;;;5066185;28;20112;-57
2022/07/22 01:03:37;;;;;;;15.40;9.27;;;17.50;74.20;;;;;;5073441;28;20056;-56
2022/07/22 01:06:03;;;;;;;15.93;9.30;;;17.40;73.40;;;;;;5075407;28;20084;-57
2022/07/22 01:08:29;;;;;;;15.27;8.80;;;17.40;74.40;;;;;;5076171;28;20103;-56
2022/07/22 01:11:06;;;;;;;13.40;8.75;;;17.30;72.70;;;;;;5077386;28;20063;-55
2022/07/22 01:13:32;;;;;;;13.13;8.15;;;17.30;72.30;;;;;;5074967;28;20021;-56
2022/07/22 01:15:58;;;;;;;13.48;7.80;;;17.30;72.70;;;;;;5067930;28;20370;-57
2022/07/22 01:18:24;;;;;;;15.05;8.13;;;17.30;73.90;;;;;;5062321;28;20257;-56
2022/07/22 01:20:49;;;;;;;13.80;8.55;;;17.30;73.00;;;;;;5069556;28;20496;-57
2022/07/22 01:23:15;;;;;;;15.27;7.53;;;17.30;72.90;;;;;;5062656;28;20060;-57
2022/07/22 01:25:41;;;;;;;14.93;7.57;;;17.30;72.60;;;;;;5076674;28;20023;-56
2022/07/22 01:28:07;;;;;;;13.40;7.75;;;17.30;73.40;;;;;;5074834;28;20081;-57
2022/07/22 01:30:32;;;;;;;14.88;8.25;;;17.20;72.90;;;;;;5061488;28;20028;-56
2022/07/22 01:32:58;;;;;;;14.38;8.00;;;17.20;73.80;;;;;;5079657;28;20063;-57
2022/07/22 01:35:24;;;;;;;11.63;7.57;;;17.20;74.30;;;;;;5080320;28;20047;-56
2022/07/22 01:37:50;;;;;;;15.45;8.52;;;17.20;73.50;;;;;;5079868;28;20027;-57
2022/07/22 01:40:15;;;;;;;12.25;7.63;;;17.20;74.10;;;;;;5081193;28;20123;-56
2022/07/22 01:42:41;;;;;;;17.20;8.38;;;17.20;74.30;;;;;;5077143;28;20032;-56
2022/07/22 01:45:08;;;;;;;17.90;8.48;;;17.20;73.70;;;;;;5061258;28;20877;-55
2022/07/22 01:47:33;;;;;;;17.60;9.10;;;17.20;73.70;;;;;;5067319;28;20019;-57
2022/07/22 01:49:59;;;;;;;15.82;8.07;;;17.20;74.40;;;;;;5098289;28;20395;-56
2022/07/22 01:52:25;;;;;;;15.02;8.38;;;17.20;74.00;;;;;;5094072;28;20530;-57
2022/07/22 01:54:50;;;;;;;14.40;8.57;;;17.20;75.30;;;;;;5071142;28;20024;-56
2022/07/22 01:57:16;;;;;;;13.68;8.48;;;17.20;73.90;;;;;;5079998;28;20064;-56
2022/07/22 01:59:42;;;;;;;13.27;7.82;;;17.30;74.30;;;;;;5076452;28;20499;-56
2022/07/22 02:02:08;;;;;;;14.63;8.68;;;17.30;74.40;;;;;;5078745;28;20525;-57
2022/07/22 02:04:34;;;;;;;12.57;7.63;;;17.30;73.30;;;;;;5079665;28;20044;-57
2022/07/22 02:06:59;;;;;;;13.32;7.80;;;17.30;73.80;;;;;;5079664;28;20032;-56
2022/07/22 02:09:25;;;;;;;15.73;7.75;;;17.30;74.30;;;;;;5077125;28;20020;-55
2022/07/22 02:11:51;;;;;;;15.63;8.40;;;17.20;74.00;;;;;;5077872;28;20020;-56
2022/07/22 02:14:17;;;;;;;14.93;7.88;;;17.30;75.60;;;;;;5074004;28;20056;-56
2022/07/22 02:16:42;;;;;;;13.93;7.88;;;17.20;74.20;;;;;;5058301;28;20025;-57
2022/07/22 02:19:08;;;;;;;16.20;7.85;;;17.20;73.40;;;;;;5063310;28;20052;-56
2022/07/22 02:21:34;;;;;;;14.68;8.30;;;17.20;74.10;;;;;;5066734;28;20021;-57
2022/07/22 02:24:00;;;;;;;15.18;8.23;;;17.20;74.30;;;;;;5077845;28;20060;-56
2022/07/22 02:26:25;;;;;;;13.70;9.18;;;17.20;75.40;;;;;;5067107;28;20056;-56
2022/07/22 02:28:51;;;;;;;14.20;8.93;;;17.20;75.30;;;;;;5066557;28;20061;-57
2022/07/22 02:31:17;;;;;;;16.23;9.27;;;17.20;74.40;;;;;;5076449;28;20055;-57
2022/07/22 02:33:43;;;;;;;18.83;9.88;;;17.10;75.60;;;;;;5077829;28;20033;-57
2022/07/22 02:36:09;;;;;;;14.95;9.00;;;17.10;75.40;;;;;;5080087;28;20040;-56
2022/07/22 02:38:35;;;;;;;15.18;9.25;;;17.10;74.80;;;;;;5071457;28;20127;-57
2022/07/22 02:41:01;;;;;;;15.38;9.30;;;17.10;75.60;;;;;;5062344;28;20060;-56
2022/07/22 02:43:26;;;;;;;16.85;9.07;;;17.10;75.00;;;;;;5078980;28;20433;-55
2022/07/22 02:45:52;;;;;;;15.45;8.63;;;17.10;75.30;;;;;;5076652;28;20499;-57
2022/07/22 02:48:18;;;;;;;14.00;8.88;;;17.00;76.30;;;;;;5075442;28;20040;-57
2022/07/22 02:50:47;;;;;;;13.73;8.52;;;17.00;76.40;;;;;;5070064;28;20032;-55
2022/07/22 02:53:14;;;;;;;14.52;8.50;;;17.00;76.30;;;;;;5077489;28;20562;-56
2022/07/22 02:55:40;;;;;;;13.50;7.53;;;17.00;76.70;;;;;;5076653;28;20041;-56
2022/07/22 02:58:08;;;;;;;13.38;8.80;;;17.00;76.70;;;;;;5062880;28;20571;-55
2022/07/22 03:00:34;;;;;;;13.45;7.93;;;17.00;75.60;;;;;;5063708;28;20028;-56
2022/07/22 03:03:00;;;;;;;13.60;6.97;;;17.00;75.40;;;;;;5069346;28;20017;-56
2022/07/22 03:05:26;;;;;;;13.70;8.35;;;16.90;76.00;;;;;;5067705;28;20549;-56
2022/07/22 03:07:52;;;;;;;14.15;7.93;;;16.90;75.80;;;;;;5067948;28;20505;-56
2022/07/22 03:10:17;;;;;;;14.50;7.82;;;16.90;75.30;;;;;;5065515;28;20134;-56
2022/07/22 03:12:43;;;;;;;13.00;7.78;;;16.80;74.90;;;;;;5078625;28;20039;-57
2022/07/22 03:15:09;;;;;;;14.20;7.80;;;16.80;75.70;;;;;;5078481;28;20025;-57
2022/07/22 03:17:37;;;;;;;12.50;7.40;;;16.80;76.10;;;;;;5063060;28;20042;-57
2022/07/22 03:20:07;;;;;;;11.85;7.72;;;16.80;76.40;;;;;;5073152;28;20040;-57
2022/07/22 03:22:34;;;;;;;13.52;8.02;;;16.70;76.20;;;;;;5071632;28;20028;-56
2022/07/22 03:25:00;;;;;;;11.35;7.85;;;16.70;75.20;;;;;;5071511;28;20388;-56
2022/07/22 03:27:26;;;;;;;12.80;8.02;;;16.60;75.20;;;;;;5076787;28;20035;-55
2022/07/22 03:29:52;;;;;;;13.77;7.90;;;16.60;74.80;;;;;;5077164;28;20641;-56
2022/07/22 03:32:18;;;;;;;14.77;7.55;;;16.60;75.30;;;;;;5077867;28;20517;-55
2022/07/22 03:34:44;;;;;;;14.00;8.00;;;16.60;75.70;;;;;;5069516;28;20068;-57
2022/07/22 03:37:10;;;;;;;12.18;8.23;;;16.60;75.70;;;;;;5074091;28;20024;-56
2022/07/22 03:39:36;;;;;;;15.20;8.27;;;16.50;75.90;;;;;;5076700;28;20115;-55
2022/07/22 03:42:02;;;;;;;14.20;8.02;;;16.50;75.80;;;;;;5077406;28;20024;-56
2022/07/22 03:44:28;;;;;;;15.25;9.10;;;16.50;76.50;;;;;;5076414;28;20464;-57
2022/07/22 03:46:54;;;;;;;13.23;8.38;;;16.50;76.10;;;;;;5070396;28;20025;-56
2022/07/22 03:49:20;;;;;;;14.02;7.75;;;16.50;76.60;;;;;;5073385;28;20031;-55
2022/07/22 03:51:46;;;;;;;13.20;8.57;;;16.40;76.00;;;;;;5068316;28;20158;-56
2022/07/22 03:54:12;;;;;;;13.32;7.72;;;16.40;77.20;;;;;;5075001;28;20412;-56
2022/07/22 03:56:38;;;;;;;16.83;8.48;;;16.40;76.00;;;;;;5076269;28;20111;-55
2022/07/22 03:59:03;;;;;;;14.75;8.27;;;16.40;77.30;;;;;;5070519;28;20573;-56
2022/07/22 04:01:29;;;;;;;17.63;8.05;;;16.40;76.60;;;;;;5058693;28;20020;-56
2022/07/22 04:03:55;;;;;;;11.45;7.70;;;16.40;76.90;;;;;;5069060;28;20029;-57
2022/07/22 04:06:21;;;;;;;14.43;8.20;;;16.40;77.40;;;;;;5074341;28;20074;-56
2022/07/22 04:08:47;;;;;;;14.13;8.50;;;16.30;77.30;;;;;;5073267;28;20032;-56
2022/07/22 04:11:12;;;;;;;14.70;7.60;;;16.30;77.10;;;;;;5075661;28;20029;-56
2022/07/22 04:13:38;;;;;;;16.67;8.65;;;16.30;77.20;;;;;;5069606;28;20024;-56
2022/07/22 04:16:04;;;;;;;13.30;8.63;;;16.30;76.50;;;;;;5075699;28;20024;-56
2022/07/22 04:18:31;;;;;;;12.48;7.45;;;16.30;78.60;;;;;;5077163;28;20043;-56
2022/07/22 04:20:57;;;;;;;16.92;7.55;;;16.30;77.30;;;;;;5077102;28;20017;-57
2022/07/22 04:23:23;;;;;;;15.85;7.60;;;16.30;77.40;;;;;;5075252;28;20043;-57
2022/07/22 04:25:49;;;;;;;13.98;8.38;;;16.30;78.10;;;;;;5071876;28;20033;-57
2022/07/22 04:28:15;;;;;;;11.65;7.05;;;16.30;77.70;;;;;;5075756;28;20032;-56
2022/07/22 04:30:40;;;;;;;13.00;7.10;;;16.30;76.90;;;;;;5063595;28;20029;-55
2022/07/22 04:33:06;;;;;;;13.80;7.50;;;16.20;76.80;;;;;;5066627;28;20388;-56
2022/07/22 04:35:32;;;;;;;13.80;7.63;;;16.30;77.00;;;;;;5062294;28;20021;-57
2022/07/22 04:37:58;;;;;;;13.55;8.30;;;16.30;77.50;;;;;;5068154;28;20033;-55
2022/07/22 04:40:23;;;;;;;10.15;6.55;;;16.20;77.80;;;;;;5068216;28;20582;-55
2022/07/22 04:42:49;;;;;;;11.48;6.78;;;16.30;78.30;;;;;;5075748;28;20040;-57
2022/07/22 04:45:15;;;;;;;13.30;7.18;;;16.20;78.70;;;;;;5075630;28;20028;-56
2022/07/22 04:47:41;;;;;;;11.88;6.75;;;16.20;78.00;;;;;;5064868;28;20082;-58
2022/07/22 04:50:07;;;;;;;13.27;7.15;;;16.20;77.40;;;;;;5072312;28;20095;-55
2022/07/22 04:52:33;;;;;;;12.23;6.40;;;16.20;78.00;;;;;;5075555;28;20059;-56
2022/07/22 04:54:59;;;;;;;10.90;7.05;;;16.20;79.50;;;;;;5074268;28;20029;-55
2022/07/22 04:57:26;;;;;;;12.73;6.35;;;16.30;79.60;;;;;;5075428;28;20484;-57
2022/07/22 04:59:53;;;;;;;14.68;7.03;;;16.20;79.20;;;;;;5068756;28;20031;-57
2022/07/22 05:02:19;;;;;;;15.50;7.32;;;16.20;79.00;;;;;;5071574;28;20028;-57
2022/07/22 05:04:45;;;;;;;12.90;6.70;;;16.30;78.90;;;;;;5068039;28;20039;-57
2022/07/22 05:07:11;;;;;;;14.10;7.78;;;16.20;77.90;;;;;;5076810;28;20056;-57
2022/07/22 05:09:37;;;;;;;14.40;7.57;;;16.30;77.70;;;;;;5077321;28;20082;-56
2022/07/22 05:12:03;;;;;;;18.02;7.90;;;16.20;80.10;;;;;;5077347;28;20033;-57
2022/07/22 05:14:30;;;;;;;13.45;7.13;;;16.30;79.40;;;;;;5077637;28;20388;-57
2022/07/22 05:16:56;;;;;;;11.88;6.63;;;16.30;79.50;;;;;;5074239;28;20028;-56
2022/07/22 05:19:21;;;;;;;12.15;6.95;;;16.30;79.40;;;;;;5076143;28;20013;-56
2022/07/22 05:21:47;;;;;;;11.55;6.97;;;16.40;80.20;;;;;;5071847;28;20033;-55
2022/07/22 05:24:13;;;;;;;13.88;7.07;;;16.50;80.00;;;;;;5056869;28;20952;-56
2022/07/22 05:26:39;;;;;;;11.68;6.85;;;16.60;79.10;;;;;;5070826;28;20041;-57
2022/07/22 05:29:05;;;;;;;12.77;6.03;;;16.70;79.60;;;;;;5074535;28;20029;-57
2022/07/22 05:31:31;;;;;;;12.75;6.43;;;16.80;79.00;;;;;;5075189;28;20064;-56
2022/07/22 05:33:57;;;;;;;11.95;6.18;;;16.80;79.20;;;;;;5062189;28;20033;-56
2022/07/22 05:36:23;;;;;;;13.27;6.07;;;16.90;80.20;;;;;;5059058;28;20029;-56
2022/07/22 05:38:48;;;;;;;11.95;6.25;;;16.90;79.40;;;;;;5064914;28;20025;-57
2022/07/22 05:41:14;;;;;;;10.73;6.25;;;17.00;79.20;;;;;;5066745;28;20052;-58
2022/07/22 05:43:40;;;;;;;10.25;6.25;;;17.10;80.00;;;;;;5075728;28;21003;-56
2022/07/22 05:46:07;;;;;;;12.63;6.10;;;17.20;79.00;;;;;;5060050;28;20029;-55
2022/07/22 05:48:33;;;;;;;13.20;5.82;;;17.20;79.00;;;;;;5062807;28;20042;-57
2022/07/22 05:50:59;;;;;;;17.27;6.47;;;17.30;78.30;;;;;;5069046;28;20040;-56
2022/07/22 05:53:25;;;;;;;12.27;5.72;;;17.30;78.30;;;;;;5073978;28;20029;-58
2022/07/22 05:55:51;;;;;;;11.60;5.80;;;17.40;78.10;;;;;;5069716;28;20036;-57
2022/07/22 05:58:17;;;;;;;13.95;5.35;;;17.50;77.70;;;;;;5062380;28;20048;-57
2022/07/22 06:00:43;;;;;;;9.40;5.38;;;17.50;78.00;;;;;;5074560;28;20020;-58
2022/07/22 06:03:09;;;;;;;9.82;5.78;;;17.50;77.70;;;;;;5075807;28;20058;-56
2022/07/22 06:05:37;;;;;;;11.52;5.82;;;17.60;77.70;;;;;;5075906;28;20040;-57
2022/07/22 06:08:04;;;;;;;10.70;6.22;;;17.70;78.10;;;;;;5068190;28;20071;-57
2022/07/22 06:10:30;;;;;;;12.07;4.88;;;17.80;77.40;;;;;;5074633;28;20021;-58
2022/07/22 06:12:56;;;;;;;12.27;5.60;;;17.80;77.40;;;;;;5074844;28;20434;-57
2022/07/22 06:15:22;;;;;;;11.82;5.10;;;17.90;76.90;;;;;;5074437;28;20125;-54
2022/07/22 06:17:47;;;;;;;10.77;5.10;;;17.90;76.50;;;;;;5072041;28;20033;-56
2022/07/22 06:20:13;;;;;;;9.88;4.97;;;17.90;76.90;;;;;;5067326;28;20016;-56
2022/07/22 06:22:40;;;;;;;11.00;5.45;;;17.90;76.90;;;;;;5072616;28;20033;-56
2022/07/22 06:25:07;;;;;;;10.18;5.00;;;17.90;76.70;;;;;;5079055;28;20580;-57
2022/07/22 06:27:33;;;;;;;9.27;4.97;;;18.00;76.70;;;;;;5077930;28;20032;-58
2022/07/22 06:29:59;;;;;;;10.07;5.43;;;18.00;76.60;;;;;;5077646;28;20032;-55
2022/07/22 06:32:25;;;;;;;9.95;4.93;;;18.00;76.40;;;;;;5079047;28;20066;-57
2022/07/22 06:34:50;;;;;;;10.23;5.15;;;18.00;76.30;;;;;;5072748;28;20041;-54
2022/07/22 06:37:16;;;;;;;12.00;5.28;;;17.90;76.00;;;;;;5068240;28;20391;-56
2022/07/22 06:39:42;;;;;;;12.15;5.20;;;17.90;76.50;;;;;;5072138;28;20029;-57
2022/07/22 06:42:08;;;;;;;10.45;5.15;;;17.90;76.40;;;;;;5059729;28;20032;-58
2022/07/22 06:44:34;;;;;;;12.23;5.22;;;17.90;76.30;;;;;;5077695;28;20016;-58
2022/07/22 06:47:00;;;;;;;11.05;5.20;;;17.90;76.60;;;;;;5071484;28;20032;-57
2022/07/22 06:49:26;;;;;;;9.07;4.90;;;18.00;76.70;;;;;;5069775;28;20165;-56
2022/07/22 06:51:52;;;;;;;11.05;4.95;;;18.00;76.60;;;;;;5070161;28;20067;-57
2022/07/22 06:54:18;;;;;;;10.10;4.78;;;18.10;76.30;;;;;;5075439;28;20028;-56
2022/07/22 06:56:44;;;;;;;9.40;4.75;;;18.10;76.20;;;;;;5072479;28;20028;-58
2022/07/22 06:59:10;;;;;;;14.27;5.00;;;18.10;76.20;;;;;;5072656;28;20053;-57
2022/07/22 07:01:36;;;;;;;11.10;4.93;;;18.10;76.10;;;;;;5076643;28;20496;-57
2022/07/22 07:04:02;;;;;;;14.18;4.82;;;18.10;76.00;;;;;;5074286;28;20023;-55
2022/07/22 07:06:28;;;;;;;10.45;4.80;;;18.10;76.10;;;;;;5059888;28;20055;-57
2022/07/22 07:08:54;;;;;;;10.85;5.13;;;18.20;76.00;;;;;;5073853;28;20033;-57
2022/07/22 07:11:21;;;;;;;10.20;4.65;;;18.20;75.50;;;;;;5073690;28;20037;-56
2022/07/22 07:13:47;;;;;;;13.32;4.63;;;18.10;75.50;;;;;;5065513;28;20032;-58
2022/07/22 07:16:13;;;;;;;11.48;4.43;;;18.20;75.30;;;;;;5058980;28;20393;-57
2022/07/22 07:18:38;;;;;;;11.27;4.53;;;18.20;75.70;;;;;;5059458;28;20025;-56
2022/07/22 07:21:04;;;;;;;11.73;4.82;;;18.20;75.70;;;;;;5071681;28;20052;-57
2022/07/22 07:23:30;;;;;;;9.73;4.50;;;18.20;75.60;;;;;;5073081;28;20481;-57
2022/07/22 07:25:56;;;;;;;13.32;4.30;;;18.20;75.70;;;;;;5078180;28;20109;-56
2022/07/22 07:28:22;;;;;;;9.57;4.25;;;18.30;75.00;;;;;;5076725;28;20028;-57
2022/07/22 07:30:48;;;;;;;8.65;4.90;;;18.30;75.70;;;;;;5076149;28;20043;-55
2022/07/22 07:33:14;;;;;;;9.90;4.45;;;18.40;75.70;;;;;;5072404;28;20442;-56
2022/07/22 07:35:39;;;;;;;8.38;4.30;;;18.40;75.30;;;;;;5060704;28;20044;-57
2022/07/22 07:38:05;;;;;;;13.35;4.75;;;18.50;75.20;;;;;;5058376;28;20025;-57
2022/07/22 07:40:31;;;;;;;9.88;4.30;;;18.50;74.00;;;;;;5070965;28;20384;-51
2022/07/22 07:42:57;;;;;;;9.50;4.55;;;18.50;74.30;;;;;;5077219;28;20104;-57
2022/07/22 07:45:23;;;;;;;8.95;4.28;;;18.60;73.80;;;;;;5076915;28;20437;-56
2022/07/22 07:47:49;;;;;;;8.35;4.50;;;18.60;74.50;;;;;;5070976;28;20033;-57
2022/07/22 07:50:15;;;;;;;12.25;4.40;;;18.70;73.80;;;;;;5070269;28;20058;-57
2022/07/22 07:52:44;;;;;;;11.90;4.20;;;18.80;73.70;;;;;;5062554;28;20033;-55
2022/07/22 07:55:12;;;;;;;9.77;4.10;;;18.80;73.30;;;;;;5072853;28;20028;-56
2022/07/22 07:57:38;;;;;;;10.20;4.80;;;18.80;73.00;;;;;;5067969;28;20051;-57
2022/07/22 08:00:08;;;;;;;9.93;4.40;;;18.80;74.00;;;;;;5067334;28;20031;-57
2022/07/22 08:02:34;;;;;;;11.00;4.40;;;18.90;74.10;;;;;;5075259;28;20016;-55
2022/07/22 08:05:01;;;;;;;9.60;4.75;;;19.10;73.00;;;;;;5066109;28;20037;-58
2022/07/22 08:07:27;;;;;;;12.35;4.45;;;19.10;72.10;;;;;;5067227;28;20053;-57
2022/07/22 08:09:53;;;;;;;8.07;4.07;;;19.20;71.80;;;;;;5071820;28;20801;-58
2022/07/22 08:12:19;;;;;;;8.68;4.43;;;19.20;72.30;;;;;;5074892;28;20028;-55
2022/07/22 08:14:45;;;;;;;11.13;4.65;;;19.30;71.30;;;;;;5073211;28;20040;-57
2022/07/22 08:17:11;;;;;;;10.18;4.63;;;19.30;71.90;;;;;;5066042;28;20491;-57
2022/07/22 08:19:38;;;;;;;11.07;4.60;;;19.30;71.40;;;;;;5067125;28;20032;-57
2022/07/22 08:22:03;;;;;;;15.30;4.57;;;19.40;71.50;;;;;;5072843;28;20028;-56
2022/07/22 08:24:29;;;;;;;9.48;4.65;;;19.40;71.30;;;;;;5073506;28;20081;-57
2022/07/22 08:26:55;;;;;;;9.57;4.05;;;19.40;71.90;;;;;;5071224;28;20100;-57
2022/07/22 08:29:21;;;;;;;8.88;4.60;;;19.50;70.60;;;;;;5066684;28;20463;-58
2022/07/22 08:31:47;;;;;;;9.70;4.18;;;19.50;70.50;;;;;;5074965;28;20047;-57
2022/07/22 08:34:13;;;;;;;9.57;4.18;;;19.60;70.80;;;;;;5074660;28;20029;-57
2022/07/22 08:36:38;;;;;;;11.68;4.70;;;19.70;69.80;;;;;;5069552;28;20028;-55
2022/07/22 08:39:04;;;;;;;9.55;4.65;;;19.70;71.10;;;;;;5076208;28;20027;-56
2022/07/22 08:41:35;;;;;;;9.73;4.70;;;19.80;70.80;;;;;;5070962;28;20013;-56
2022/07/22 08:44:06;;;;;;;12.00;5.10;;;19.90;70.80;;;;;;5070323;28;20113;-57
2022/07/22 08:46:32;;;;;;;9.73;4.88;;;20.00;70.50;;;;;;5065670;28;20112;-58
2022/07/22 08:49:00;;;;;;;10.85;4.72;;;20.00;69.80;;;;;;5068644;28;20036;-58
2022/07/22 08:51:27;;;;;;;9.45;5.07;;;20.10;69.90;;;;;;5093541;28;20040;-58
2022/07/22 08:53:54;;;;;;;10.15;4.55;;;20.20;69.20;;;;;;5088005;28;20032;-57
2022/07/22 08:56:20;;;;;;;9.98;5.28;;;20.30;69.90;;;;;;5093800;28;20036;-57
2022/07/22 08:58:46;;;;;;;9.57;4.93;;;20.30;68.60;;;;;;5096642;28;20016;-56
2022/07/22 09:01:15;;;;;;;8.88;4.90;;;20.40;67.80;;;;;;5082803;28;20397;-57
2022/07/22 09:03:55;;;;;;;11.95;5.00;;;20.50;68.80;;;;;;5077026;28;20466;-55
2022/07/22 09:06:24;;;;;;;7.70;4.70;;;20.60;69.30;;;;;;5067084;28;20027;-57
2022/07/22 09:08:58;;;;;;;11.52;5.50;;;20.60;68.50;;;;;;5073656;28;20059;-56
2022/07/22 09:11:26;;;;;;;7.75;4.85;;;20.70;66.80;;;;;;5070652;28;20046;-57
2022/07/22 09:13:52;;;;;;;11.02;5.13;;;20.70;68.60;;;;;;5068240;28;20127;-57
2022/07/22 09:16:47;;;;;;;9.20;5.05;;;20.80;67.80;;;;;;5068366;28;20499;-57
2022/07/22 09:19:13;;;;;;;10.10;5.35;;;20.90;69.50;;;;;;5074009;28;20020;-55
2022/07/22 09:21:43;;;;;;;8.00;4.63;;;21.00;66.40;;;;;;5074009;28;20430;-57
2022/07/22 09:24:31;;;;;;;10.00;4.78;;;21.10;66.60;;;;;;5075015;28;20021;-56
2022/07/22 09:26:57;;;;;;;10.13;5.55;;;21.10;67.60;;;;;;5071612;28;21155;-57
2022/07/22 09:29:23;;;;;;;10.40;4.78;;;21.20;67.80;;;;;;5074096;28;20029;-57
2022/07/22 09:31:52;;;;;;;11.98;5.00;;;21.30;66.50;;;;;;5071052;28;20056;-57
2022/07/22 09:34:29;;;;;;;9.25;4.60;;;21.50;65.80;;;;;;5060671;28;20040;-57
2022/07/22 09:37:00;;;;;;;7.90;4.30;;;21.60;65.10;;;;;;5061990;28;20035;-55
2022/07/22 09:39:31;;;;;;;6.25;4.40;;;21.70;66.30;;;;;;5057465;28;20025;-56
2022/07/22 09:42:02;;;;;;;8.68;5.05;;;21.90;66.40;;;;;;5073088;28;20013;-56
2022/07/22 09:44:28;;;;;;;9.48;4.60;;;22.00;65.20;;;;;;5072092;28;20025;-55
2022/07/22 09:46:54;;;;;;;7.28;4.45;;;22.20;64.70;;;;;;5067649;28;20038;-56
2022/07/22 09:49:37;;;;;;;8.90;4.40;;;22.40;64.90;;;;;;5068031;28;20020;-57
2022/07/22 09:52:03;;;;;;;10.02;4.25;;;22.60;65.30;;;;;;5077207;28;20034;-57
2022/07/22 09:54:30;;;;;;;9.43;4.80;;;22.90;65.40;;;;;;5079096;28;20028;-57
2022/07/22 09:56:56;;;;;;;8.48;4.20;;;23.20;63.40;;;;;;5060988;28;20032;-55
2022/07/22 09:59:22;;;;;;;10.85;4.10;;;23.50;64.10;;;;;;5059637;28;20021;-58
2022/07/22 10:01:53;;;;;;;11.95;4.82;;;23.70;58.80;;;;;;5059833;28;20032;-58
2022/07/22 10:04:20;;;;;;;7.28;4.60;;;24.00;60.80;;;;;;5059829;28;20028;-57
2022/07/22 10:06:48;;;;;;;8.02;4.40;;;24.30;61.50;;;;;;5059756;28;20040;-58
2022/07/22 10:09:16;;;;;;;9.73;4.90;;;24.60;59.10;;;;;;5060473;28;20048;-56
2022/07/22 10:11:46;;;;;;;11.30;4.97;;;24.80;59.90;;;;;;5060816;28;20029;-58
2022/07/22 10:14:16;;;;;;;9.75;4.82;;;25.10;55.70;;;;;;5060754;28;20021;-58
2022/07/22 10:16:43;;;;;;;13.70;6.22;;;25.40;60.30;;;;;;5060241;28;20035;-58
2022/07/22 10:19:10;;;;;;;17.00;4.93;;;25.70;60.20;;;;;;5060352;28;20021;-57
2022/07/22 10:21:37;;;;;;;9.15;4.68;;;26.10;57.20;;;;;;5060347;28;20029;-58
2022/07/22 10:24:11;;;;;;;8.63;4.85;;;26.30;55.50;;;;;;5060127;28;20025;-58
2022/07/22 10:26:51;;;;;;;10.57;5.20;;;26.60;60.20;;;;;;5060034;28;20056;-57
2022/07/22 10:29:43;;;;;;;9.50;5.10;;;27.10;59.30;;;;;;5060100;28;20032;-57
2022/07/22 10:32:17;;;;;;;9.00;4.95;;;27.40;60.30;;;;;;5059840;28;20076;-57
2022/07/22 10:35:06;;;;;;;7.20;4.50;;;27.80;57.70;;;;;;5060205;28;20029;-58
2022/07/22 10:37:34;;;;;;;8.55;5.13;;;27.90;47.90;;;;;;5060234;28;20033;-58
2022/07/22 10:40:44;;;;;;;8.23;4.80;;;28.30;56.80;;;;;;5060508;28;20017;-58
2022/07/22 10:43:11;;;;;;;9.27;5.05;;;28.60;55.20;;;;;;5060451;28;20029;-58
2022/07/22 10:46:06;;;;;;;10.45;5.03;;;29.00;46.20;;;;;;5060500;28;20057;-58
2022/07/22 10:48:32;;;;;;;8.43;5.05;;;29.40;57.60;;;;;;5049663;28;20037;-59
2022/07/22 10:51:14;;;;;;;8.27;4.60;;;29.60;51.80;;;;;;5059288;28;20115;-58
2022/07/22 10:53:56;;;;;;;8.35;4.72;;;29.80;51.20;;;;;;5059195;28;20029;-59
2022/07/22 10:56:29;;;;;;;8.00;4.55;;;29.90;43.70;;;;;;5057341;28;20036;-59
2022/07/22 10:59:08;;;;;;;7.50;4.45;;;30.30;51.40;;;;;;5057955;28;20021;-58
2022/07/22 11:01:35;;;;;;;8.10;5.05;;;30.50;48.20;;;;;;5059248;28;20023;-58
2022/07/22 11:04:32;;;;;;;11.55;5.28;;;30.70;49.30;;;;;;5059918;28;20061;-58
2022/07/22 11:06:58;;;;;;;10.63;4.82;;;30.80;50.30;;;;;;5051341;28;20037;-58
2022/07/22 11:09:34;;;;;;;10.18;5.07;;;31.00;45.60;;;;;;5057633;28;20108;-59
2022/07/22 11:12:00;;;;;;;9.25;4.97;;;31.00;46.30;;;;;;5057655;28;20527;-59
2022/07/22 11:14:34;;;;;;;7.97;4.72;;;31.20;47.10;;;;;;5057700;28;20028;-59
2022/07/22 11:17:09;;;;;;;9.50;5.03;;;31.50;44.90;;;;;;5057103;28;20562;-58
2022/07/22 11:19:39;;;;;;;9.00;5.30;;;31.90;41.10;;;;;;5057447;28;20017;-59
2022/07/22 11:22:10;;;;;;;8.15;4.97;;;32.20;44.00;;;;;;5058551;28;20028;-58
2022/07/22 11:24:37;;;;;;;8.13;5.00;;;32.50;45.50;;;;;;5059366;28;20108;-59
2022/07/22 11:27:04;;;;;;;8.70;4.95;;;32.80;43.90;;;;;;5059277;28;20476;-59
2022/07/22 11:29:35;;;;;;;9.02;5.07;;;32.80;44.00;;;;;;5059884;28;20021;-59
2022/07/22 11:32:03;;;;;;;8.30;5.45;;;32.90;42.60;;;;;;5059303;28;20060;-57
2022/07/22 11:34:29;;;;;;;10.05;5.15;;;33.10;42.90;;;;;;5059333;28;20029;-57
2022/07/22 11:36:56;;;;;;;8.55;5.45;;;33.20;38.90;;;;;;5059263;28;20495;-57
2022/07/22 11:39:25;;;;;;;10.27;5.07;;;33.00;40.60;;;;;;5059435;28;20032;-57
2022/07/22 11:41:52;;;;;;;9.73;5.47;;;33.00;37.60;;;;;;5058991;28;20388;-56
2022/07/22 11:44:21;;;;;;;11.35;5.82;;;33.20;38.50;;;;;;5059157;28;20064;-57
2022/07/22 11:46:48;;;;;;;9.05;5.20;;;33.50;38.40;;;;;;5059229;28;20075;-57
2022/07/22 11:49:16;;;;;;;11.48;5.13;;;33.80;41.00;;;;;;5059022;28;20028;-57
2022/07/22 11:51:42;;;;;;;9.98;6.10;;;33.80;40.40;;;;;;5057863;28;20032;-57
2022/07/22 11:54:08;;;;;;;8.93;5.55;;;33.70;38.30;;;;;;5058235;28;20057;-57
2022/07/22 11:56:35;;;;;;;12.40;6.18;;;33.40;37.90;;;;;;5058624;28;20021;-57
2022/07/22 11:59:08;;;;;;;7.95;5.40;;;32.80;38.90;;;;;;5058773;28;20049;-57
2022/07/22 12:01:36;;;;;;;11.63;5.50;;;32.10;37.40;;;;;;5058987;28;20412;-57
2022/07/22 12:04:15;;;;;;;9.93;6.00;;;32.00;40.20;;;;;;5058968;28;20540;-57
2022/07/22 12:06:43;;;;;;;14.02;5.35;;;32.00;38.30;;;;;;5058844;28;20055;-57
2022/07/22 12:09:10;;;;;;;10.30;5.45;;;32.10;37.10;;;;;;5058616;28;20025;-57
2022/07/22 12:11:39;;;;;;;9.85;5.75;;;32.00;39.70;;;;;;5057204;28;20366;-57
2022/07/22 12:14:12;;;;;;;9.63;5.60;;;32.20;37.90;;;;;;5058524;28;20031;-57
2022/07/22 12:16:39;;;;;;;9.68;5.72;;;32.30;38.40;;;;;;5058550;28;20028;-57
2022/07/22 12:19:07;;;;;;;10.73;5.95;;;32.00;37.60;;;;;;5058452;28;20021;-57
2022/07/22 12:21:53;;;;;;;11.38;6.05;;;32.00;38.20;;;;;;5058621;28;20017;-57
2022/07/22 12:24:25;;;;;;;9.40;5.53;;;32.20;37.70;;;;;;5058411;28;20033;-57
2022/07/22 12:26:51;;;;;;;10.93;5.72;;;32.60;38.20;;;;;;5058512;28;20171;-57
2022/07/22 12:29:17;;;;;;;8.73;5.70;;;33.00;39.30;;;;;;5058557;28;20033;-57
2022/07/22 12:31:54;;;;;;;9.80;5.60;;;33.20;36.90;;;;;;5058038;28;20057;-57
2022/07/22 12:34:57;;;;;;;9.73;5.82;;;33.30;37.40;;;;;;5058635;28;20021;-57
2022/07/22 12:37:26;;;;;;;9.10;5.43;;;33.40;34.70;;;;;;5026197;28;20068;-57
2022/07/22 12:40:06;;;;;;;9.77;5.82;;;33.20;36.00;;;;;;5058087;28;20465;-57
2022/07/22 12:42:34;;;;;;;10.57;5.72;;;33.40;36.30;;;;;;5058260;28;20082;-57
2022/07/22 12:45:11;;;;;;;12.25;6.45;;;33.70;33.50;;;;;;5058173;28;20025;-57